sensor_id;sensor_type;location;lat;lon;timestamp;P1;durP1;ratioP1;P2;durP2;ratioP2
17947;SDS011;9099;47.958;11.366;2022-08-11T00:01:36;4.22;;;2.03;;
17947;SDS011;9099;47.958;11.366;2022-08-11T00:04:09;1.80;;;1.67;;
17947;SDS011;9099;47.958;11.366;2022-08-11T00:06:39;1.85;;;1.73;;
17947;SDS011;9099;47.958;11.366;2022-08-11T00:09:08;1.90;;;1.70;;
17947;SDS011;9099;47.958;11.366;2022-08-11T00:11:38;1.70;;;1.60;;
17947;SDS011;9099;47.958;11.366;2022-08-11T00:14:12;2.10;;;1.95;;
17947;SDS011;9099;47.958;11.366;2022-08-11T00:16:41;1.88;;;1.77;;
17947;SDS011;9099;47.958;11.366;2022-08-11T00:19:10;2.08;;;1.80;;
17947;SDS011;9099;47.958;11.366;2022-08-11T00:21:45;1.83;;;1.73;;
17947;SDS011;9099;47.958;11.366;2022-08-11T00:24:12;2.00;;;1.90;;
17947;SDS011;9099;47.958;11.366;2022-08-11T00:26:41;2.70;;;1.90;;
17947;SDS011;9099;47.958;11.366;2022-08-11T00:29:13;3.40;;;2.17;;
17947;SDS011;9099;47.958;11.366;2022-08-11T00:31:42;2.00;;;1.88;;
17947;SDS011;9099;47.958;11.366;2022-08-11T00:34:11;2.30;;;1.60;;
17947;SDS011;9099;47.958;11.366;2022-08-11T00:36:42;1.88;;;1.75;;
17947;SDS011;9099;47.958;11.366;2022-08-11T00:39:13;2.13;;;1.98;;
17947;SDS011;9099;47.958;11.366;2022-08-11T00:41:46;1.92;;;1.80;;
17947;SDS011;9099;47.958;11.366;2022-08-11T00:47:23;1.90;;;1.80;;
17947;SDS011;9099;47.958;11.366;2022-08-11T00:50:02;1.90;;;1.80;;
17947;SDS011;9099;47.958;11.366;2022-08-11T00:52:43;1.85;;;1.75;;
17947;SDS011;9099;47.958;11.366;2022-08-11T00:55:44;2.13;;;1.90;;
17947;SDS011;9099;47.958;11.366;2022-08-11T01:02:07;2.05;;;1.95;;
17947;SDS011;9099;47.958;11.366;2022-08-11T01:04:48;1.85;;;1.75;;
17947;SDS011;9099;47.958;11.366;2022-08-11T01:07:39;2.78;;;2.10;;
17947;SDS011;9099;47.958;11.366;2022-08-11T01:10:39;1.92;;;1.83;;
17947;SDS011;9099;47.958;11.366;2022-08-11T01:16:38;2.35;;;2.03;;
17947;SDS011;9099;47.958;11.366;2022-08-11T01:22:50;2.00;;;1.90;;
17947;SDS011;9099;47.958;11.366;2022-08-11T01:29:03;2.03;;;1.73;;
17947;SDS011;9099;47.958;11.366;2022-08-11T01:32:07;2.00;;;1.90;;
17947;SDS011;9099;47.958;11.366;2022-08-11T01:47:41;2.67;;;1.77;;
17947;SDS011;9099;47.958;11.366;2022-08-11T01:50:20;2.10;;;2.00;;
17947;SDS011;9099;47.958;11.366;2022-08-11T01:52:59;1.88;;;1.77;;
17947;SDS011;9099;47.958;11.366;2022-08-11T01:55:36;1.80;;;1.70;;
17947;SDS011;9099;47.958;11.366;2022-08-11T01:58:11;3.00;;;1.88;;
17947;SDS011;9099;47.958;11.366;2022-08-11T02:00:47;2.25;;;2.05;;
17947;SDS011;9099;47.958;11.366;2022-08-11T02:03:23;1.88;;;1.70;;
17947;SDS011;9099;47.958;11.366;2022-08-11T02:06:02;2.10;;;1.90;;
17947;SDS011;9099;47.958;11.366;2022-08-11T02:08:53;2.17;;;1.65;;
17947;SDS011;9099;47.958;11.366;2022-08-11T02:11:33;2.08;;;1.98;;
17947;SDS011;9099;47.958;11.366;2022-08-11T02:14:06;1.80;;;1.70;;
17947;SDS011;9099;47.958;11.366;2022-08-11T02:16:47;2.30;;;2.10;;
17947;SDS011;9099;47.958;11.366;2022-08-11T02:19:40;2.17;;;1.92;;
17947;SDS011;9099;47.958;11.366;2022-08-11T02:22:35;2.40;;;2.20;;
17947;SDS011;9099;47.958;11.366;2022-08-11T02:25:30;2.08;;;1.98;;
17947;SDS011;9099;47.958;11.366;2022-08-11T02:28:05;2.20;;;2.00;;
17947;SDS011;9099;47.958;11.366;2022-08-11T02:30:36;1.95;;;1.85;;
17947;SDS011;9099;47.958;11.366;2022-08-11T02:33:12;3.08;;;2.28;;
17947;SDS011;9099;47.958;11.366;2022-08-11T02:35:49;2.20;;;2.00;;
17947;SDS011;9099;47.958;11.366;2022-08-11T02:38:24;2.40;;;2.20;;
17947;SDS011;9099;47.958;11.366;2022-08-11T02:41:05;2.25;;;2.05;;
17947;SDS011;9099;47.958;11.366;2022-08-11T02:43:55;2.50;;;2.15;;
17947;SDS011;9099;47.958;11.366;2022-08-11T02:46:43;2.92;;;2.55;;
17947;SDS011;9099;47.958;11.366;2022-08-11T02:49:17;2.30;;;2.10;;
17947;SDS011;9099;47.958;11.366;2022-08-11T02:52:18;2.05;;;1.95;;
17947;SDS011;9099;47.958;11.366;2022-08-11T02:54:52;2.60;;;2.40;;
17947;SDS011;9099;47.958;11.366;2022-08-11T02:57:38;2.10;;;2.00;;
17947;SDS011;9099;47.958;11.366;2022-08-11T03:00:09;2.33;;;2.13;;
17947;SDS011;9099;47.958;11.366;2022-08-11T03:02:48;2.08;;;1.90;;
17947;SDS011;9099;47.958;11.366;2022-08-11T03:05:26;2.10;;;2.00;;
17947;SDS011;9099;47.958;11.366;2022-08-11T03:08:06;2.15;;;2.00;;
17947;SDS011;9099;47.958;11.366;2022-08-11T03:10:43;2.20;;;2.00;;
17947;SDS011;9099;47.958;11.366;2022-08-11T03:13:35;2.13;;;2.03;;
17947;SDS011;9099;47.958;11.366;2022-08-11T03:16:27;2.28;;;2.13;;
17947;SDS011;9099;47.958;11.366;2022-08-11T03:19:12;2.67;;;2.00;;
17947;SDS011;9099;47.958;11.366;2022-08-11T03:21:47;2.38;;;2.20;;
17947;SDS011;9099;47.958;11.366;2022-08-11T03:24:24;2.10;;;2.00;;
17947;SDS011;9099;47.958;11.366;2022-08-11T03:27:07;2.55;;;2.45;;
17947;SDS011;9099;47.958;11.366;2022-08-11T03:29:41;2.88;;;2.65;;
17947;SDS011;9099;47.958;11.366;2022-08-11T03:32:19;3.38;;;2.40;;
17947;SDS011;9099;47.958;11.366;2022-08-11T03:34:51;2.33;;;2.13;;
17947;SDS011;9099;47.958;11.366;2022-08-11T03:37:25;2.45;;;2.28;;
17947;SDS011;9099;47.958;11.366;2022-08-11T03:40:19;2.10;;;2.00;;
17947;SDS011;9099;47.958;11.366;2022-08-11T03:43:31;3.35;;;2.53;;
17947;SDS011;9099;47.958;11.366;2022-08-11T03:46:15;2.40;;;2.20;;
17947;SDS011;9099;47.958;11.366;2022-08-11T03:48:53;3.55;;;2.35;;
17947;SDS011;9099;47.958;11.366;2022-08-11T03:51:28;3.08;;;2.33;;
17947;SDS011;9099;47.958;11.366;2022-08-11T03:54:09;2.65;;;2.45;;
17947;SDS011;9099;47.958;11.366;2022-08-11T04:00:05;2.50;;;2.25;;
17947;SDS011;9099;47.958;11.366;2022-08-11T04:12:12;2.33;;;2.13;;
17947;SDS011;9099;47.958;11.366;2022-08-11T04:14:59;2.40;;;2.20;;
17947;SDS011;9099;47.958;11.366;2022-08-11T04:18:12;3.42;;;2.50;;
17947;SDS011;9099;47.958;11.366;2022-08-11T04:24:12;3.45;;;2.22;;
17947;SDS011;9099;47.958;11.366;2022-08-11T04:27:10;2.60;;;2.40;;
17947;SDS011;9099;47.958;11.366;2022-08-11T04:29:56;2.30;;;2.20;;
17947;SDS011;9099;47.958;11.366;2022-08-11T04:35:38;2.45;;;2.25;;
17947;SDS011;9099;47.958;11.366;2022-08-11T04:38:17;2.97;;;2.30;;
17947;SDS011;9099;47.958;11.366;2022-08-11T04:41:19;2.30;;;2.17;;
17947;SDS011;9099;47.958;11.366;2022-08-11T04:48:04;2.60;;;2.40;;
17947;SDS011;9099;47.958;11.366;2022-08-11T04:51:24;2.60;;;2.40;;
17947;SDS011;9099;47.958;11.366;2022-08-11T04:54:30;2.80;;;2.60;;
17947;SDS011;9099;47.958;11.366;2022-08-11T04:57:35;2.83;;;2.40;;
17947;SDS011;9099;47.958;11.366;2022-08-11T05:00:31;2.60;;;2.50;;
17947;SDS011;9099;47.958;11.366;2022-08-11T05:03:37;3.22;;;2.88;;
17947;SDS011;9099;47.958;11.366;2022-08-11T05:06:45;2.90;;;2.70;;
17947;SDS011;9099;47.958;11.366;2022-08-11T05:09:27;3.22;;;2.90;;
17947;SDS011;9099;47.958;11.366;2022-08-11T05:12:13;3.22;;;2.88;;
17947;SDS011;9099;47.958;11.366;2022-08-11T05:14:56;3.95;;;3.47;;
17947;SDS011;9099;47.958;11.366;2022-08-11T05:17:43;3.15;;;2.85;;
17947;SDS011;9099;47.958;11.366;2022-08-11T05:20:39;5.57;;;2.90;;
17947;SDS011;9099;47.958;11.366;2022-08-11T05:23:29;3.10;;;2.22;;
17947;SDS011;9099;47.958;11.366;2022-08-11T05:26:16;2.88;;;2.67;;
17947;SDS011;9099;47.958;11.366;2022-08-11T05:29:04;4.43;;;2.55;;
17947;SDS011;9099;47.958;11.366;2022-08-11T05:32:10;3.13;;;2.83;;
17947;SDS011;9099;47.958;11.366;2022-08-11T05:34:58;4.72;;;2.90;;
17947;SDS011;9099;47.958;11.366;2022-08-11T05:37:32;3.80;;;2.63;;
17947;SDS011;9099;47.958;11.366;2022-08-11T05:40:05;3.05;;;2.75;;
17947;SDS011;9099;47.958;11.366;2022-08-11T05:42:54;4.43;;;2.70;;
17947;SDS011;9099;47.958;11.366;2022-08-11T05:45:40;3.58;;;2.55;;
17947;SDS011;9099;47.958;11.366;2022-08-11T05:48:30;3.38;;;2.70;;
17947;SDS011;9099;47.958;11.366;2022-08-11T05:51:16;3.25;;;2.78;;
17947;SDS011;9099;47.958;11.366;2022-08-11T05:54:03;3.33;;;2.67;;
17947;SDS011;9099;47.958;11.366;2022-08-11T05:56:51;3.00;;;2.80;;
17947;SDS011;9099;47.958;11.366;2022-08-11T05:59:20;2.33;;;2.22;;
17947;SDS011;9099;47.958;11.366;2022-08-11T06:01:49;3.20;;;2.80;;
17947;SDS011;9099;47.958;11.366;2022-08-11T06:04:19;3.70;;;3.00;;
17947;SDS011;9099;47.958;11.366;2022-08-11T06:06:52;2.72;;;2.53;;
17947;SDS011;9099;47.958;11.366;2022-08-11T06:09:22;5.53;;;2.70;;
17947;SDS011;9099;47.958;11.366;2022-08-11T06:11:51;2.90;;;2.70;;
17947;SDS011;9099;47.958;11.366;2022-08-11T06:14:21;3.80;;;2.47;;
17947;SDS011;9099;47.958;11.366;2022-08-11T06:16:50;2.70;;;2.50;;
17947;SDS011;9099;47.958;11.366;2022-08-11T06:19:28;3.00;;;2.58;;
17947;SDS011;9099;47.958;11.366;2022-08-11T06:21:58;3.35;;;2.38;;
17947;SDS011;9099;47.958;11.366;2022-08-11T06:24:26;3.20;;;2.90;;
17947;SDS011;9099;47.958;11.366;2022-08-11T06:26:56;2.65;;;2.50;;
17947;SDS011;9099;47.958;11.366;2022-08-11T06:29:24;3.35;;;2.97;;
17947;SDS011;9099;47.958;11.366;2022-08-11T06:31:52;2.58;;;2.47;;
17947;SDS011;9099;47.958;11.366;2022-08-11T06:34:36;2.72;;;2.53;;
17947;SDS011;9099;47.958;11.366;2022-08-11T06:37:15;3.15;;;2.53;;
17947;SDS011;9099;47.958;11.366;2022-08-11T06:39:49;3.35;;;2.65;;
17947;SDS011;9099;47.958;11.366;2022-08-11T06:42:33;2.80;;;2.60;;
17947;SDS011;9099;47.958;11.366;2022-08-11T06:45:11;4.13;;;2.53;;
17947;SDS011;9099;47.958;11.366;2022-08-11T06:47:50;2.75;;;2.55;;
17947;SDS011;9099;47.958;11.366;2022-08-11T06:50:20;3.03;;;2.72;;
17947;SDS011;9099;47.958;11.366;2022-08-11T06:53:06;2.60;;;2.40;;
17947;SDS011;9099;47.958;11.366;2022-08-11T06:55:37;3.30;;;2.47;;
17947;SDS011;9099;47.958;11.366;2022-08-11T06:58:25;2.65;;;2.45;;
17947;SDS011;9099;47.958;11.366;2022-08-11T07:01:13;3.28;;;2.72;;
17947;SDS011;9099;47.958;11.366;2022-08-11T07:03:45;2.78;;;2.40;;
17947;SDS011;9099;47.958;11.366;2022-08-11T07:06:27;2.80;;;2.60;;
17947;SDS011;9099;47.958;11.366;2022-08-11T07:09:11;2.70;;;2.50;;
17947;SDS011;9099;47.958;11.366;2022-08-11T07:12:21;2.70;;;2.50;;
17947;SDS011;9099;47.958;11.366;2022-08-11T07:15:21;4.43;;;2.92;;
17947;SDS011;9099;47.958;11.366;2022-08-11T07:18:09;2.78;;;2.58;;
17947;SDS011;9099;47.958;11.366;2022-08-11T07:21:05;2.88;;;2.40;;
17947;SDS011;9099;47.958;11.366;2022-08-11T07:23:57;3.00;;;2.55;;
17947;SDS011;9099;47.958;11.366;2022-08-11T07:26:47;3.53;;;2.65;;
17947;SDS011;9099;47.958;11.366;2022-08-11T07:29:35;2.80;;;2.53;;
17947;SDS011;9099;47.958;11.366;2022-08-11T07:32:08;3.78;;;2.90;;
17947;SDS011;9099;47.958;11.366;2022-08-11T07:34:43;2.75;;;2.55;;
17947;SDS011;9099;47.958;11.366;2022-08-11T07:37:14;3.10;;;2.50;;
17947;SDS011;9099;47.958;11.366;2022-08-11T07:39:46;2.53;;;2.42;;
17947;SDS011;9099;47.958;11.366;2022-08-11T07:42:14;3.50;;;2.72;;
17947;SDS011;9099;47.958;11.366;2022-08-11T07:44:46;5.78;;;2.80;;
17947;SDS011;9099;47.958;11.366;2022-08-11T07:47:32;3.30;;;2.75;;
17947;SDS011;9099;47.958;11.366;2022-08-11T07:50:19;2.78;;;2.58;;
17947;SDS011;9099;47.958;11.366;2022-08-11T07:53:04;2.72;;;2.55;;
17947;SDS011;9099;47.958;11.366;2022-08-11T07:55:34;3.22;;;2.80;;
17947;SDS011;9099;47.958;11.366;2022-08-11T07:58:02;2.85;;;2.65;;
17947;SDS011;9099;47.958;11.366;2022-08-11T08:00:47;2.70;;;2.50;;
17947;SDS011;9099;47.958;11.366;2022-08-11T08:03:35;3.78;;;2.63;;
17947;SDS011;9099;47.958;11.366;2022-08-11T08:06:20;2.83;;;2.63;;
17947;SDS011;9099;47.958;11.366;2022-08-11T08:09:06;4.40;;;2.90;;
17947;SDS011;9099;47.958;11.366;2022-08-11T08:11:53;4.70;;;2.70;;
17947;SDS011;9099;47.958;11.366;2022-08-11T08:14:38;3.25;;;2.40;;
17947;SDS011;9099;47.958;11.366;2022-08-11T08:17:23;4.38;;;2.58;;
17947;SDS011;9099;47.958;11.366;2022-08-11T08:20:10;3.42;;;2.33;;
17947;SDS011;9099;47.958;11.366;2022-08-11T08:22:40;3.15;;;2.42;;
17947;SDS011;9099;47.958;11.366;2022-08-11T08:25:07;3.00;;;2.72;;
17947;SDS011;9099;47.958;11.366;2022-08-11T08:27:36;3.13;;;2.70;;
17947;SDS011;9099;47.958;11.366;2022-08-11T08:30:07;2.95;;;2.60;;
17947;SDS011;9099;47.958;11.366;2022-08-11T08:32:52;2.63;;;2.50;;
17947;SDS011;9099;47.958;11.366;2022-08-11T08:35:22;3.65;;;2.60;;
17947;SDS011;9099;47.958;11.366;2022-08-11T08:37:49;2.63;;;2.42;;
17947;SDS011;9099;47.958;11.366;2022-08-11T08:40:17;2.78;;;2.45;;
17947;SDS011;9099;47.958;11.366;2022-08-11T08:42:48;3.63;;;2.80;;
17947;SDS011;9099;47.958;11.366;2022-08-11T08:45:19;2.95;;;2.65;;
17947;SDS011;9099;47.958;11.366;2022-08-11T08:47:47;3.30;;;2.40;;
17947;SDS011;9099;47.958;11.366;2022-08-11T08:50:19;3.65;;;2.70;;
17947;SDS011;9099;47.958;11.366;2022-08-11T08:52:49;4.65;;;2.95;;
17947;SDS011;9099;47.958;11.366;2022-08-11T08:55:20;2.55;;;2.35;;
17947;SDS011;9099;47.958;11.366;2022-08-11T08:57:49;2.70;;;2.55;;
17947;SDS011;9099;47.958;11.366;2022-08-11T09:00:19;2.40;;;2.30;;
17947;SDS011;9099;47.958;11.366;2022-08-11T09:02:47;3.00;;;2.70;;
17947;SDS011;9099;47.958;11.366;2022-08-11T09:05:15;3.22;;;2.78;;
17947;SDS011;9099;47.958;11.366;2022-08-11T09:07:44;4.30;;;2.50;;
17947;SDS011;9099;47.958;11.366;2022-08-11T09:10:12;3.40;;;2.60;;
17947;SDS011;9099;47.958;11.366;2022-08-11T09:12:41;2.58;;;2.38;;
17947;SDS011;9099;47.958;11.366;2022-08-11T09:15:11;2.97;;;2.30;;
17947;SDS011;9099;47.958;11.366;2022-08-11T09:17:40;4.00;;;2.40;;
17947;SDS011;9099;47.958;11.366;2022-08-11T09:20:11;2.92;;;2.65;;
17947;SDS011;9099;47.958;11.366;2022-08-11T09:22:41;4.20;;;2.72;;
17947;SDS011;9099;47.958;11.366;2022-08-11T09:25:27;2.78;;;2.58;;
17947;SDS011;9099;47.958;11.366;2022-08-11T09:28:15;3.72;;;2.55;;
17947;SDS011;9099;47.958;11.366;2022-08-11T09:30:46;2.58;;;2.38;;
17947;SDS011;9099;47.958;11.366;2022-08-11T09:33:17;2.50;;;2.30;;
17947;SDS011;9099;47.958;11.366;2022-08-11T09:35:45;2.20;;;2.10;;
17947;SDS011;9099;47.958;11.366;2022-08-11T09:38:14;2.63;;;2.42;;
17947;SDS011;9099;47.958;11.366;2022-08-11T09:41:00;2.40;;;2.30;;
17947;SDS011;9099;47.958;11.366;2022-08-11T09:43:30;3.92;;;2.53;;
17947;SDS011;9099;47.958;11.366;2022-08-11T09:46:21;2.35;;;2.15;;
17947;SDS011;9099;47.958;11.366;2022-08-11T09:48:51;2.90;;;2.63;;
17947;SDS011;9099;47.958;11.366;2022-08-11T09:51:21;2.63;;;2.42;;
17947;SDS011;9099;47.958;11.366;2022-08-11T09:53:48;2.58;;;2.30;;
17947;SDS011;9099;47.958;11.366;2022-08-11T09:56:17;2.80;;;2.28;;
17947;SDS011;9099;47.958;11.366;2022-08-11T09:59:04;2.45;;;2.33;;
17947;SDS011;9099;47.958;11.366;2022-08-11T10:01:34;3.17;;;2.30;;
17947;SDS011;9099;47.958;11.366;2022-08-11T10:04:07;2.72;;;2.45;;
17947;SDS011;9099;47.958;11.366;2022-08-11T10:06:39;2.50;;;2.40;;
17947;SDS011;9099;47.958;11.366;2022-08-11T10:09:26;4.78;;;2.53;;
17947;SDS011;9099;47.958;11.366;2022-08-11T10:11:59;5.72;;;2.65;;
17947;SDS011;9099;47.958;11.366;2022-08-11T10:14:28;3.00;;;2.80;;
17947;SDS011;9099;47.958;11.366;2022-08-11T10:17:17;3.45;;;2.50;;
17947;SDS011;9099;47.958;11.366;2022-08-11T10:19:47;2.70;;;2.50;;
17947;SDS011;9099;47.958;11.366;2022-08-11T10:22:15;3.58;;;2.30;;
17947;SDS011;9099;47.958;11.366;2022-08-11T10:25:02;2.30;;;2.20;;
17947;SDS011;9099;47.958;11.366;2022-08-11T10:27:47;2.88;;;2.30;;
17947;SDS011;9099;47.958;11.366;2022-08-11T10:30:22;2.40;;;2.20;;
17947;SDS011;9099;47.958;11.366;2022-08-11T10:33:09;2.70;;;2.38;;
17947;SDS011;9099;47.958;11.366;2022-08-11T10:35:56;2.40;;;2.30;;
17947;SDS011;9099;47.958;11.366;2022-08-11T10:38:23;2.85;;;2.65;;
17947;SDS011;9099;47.958;11.366;2022-08-11T10:40:51;2.88;;;2.63;;
17947;SDS011;9099;47.958;11.366;2022-08-11T10:43:34;2.63;;;2.42;;
17947;SDS011;9099;47.958;11.366;2022-08-11T10:46:04;2.63;;;2.40;;
17947;SDS011;9099;47.958;11.366;2022-08-11T10:48:51;2.40;;;2.30;;
17947;SDS011;9099;47.958;11.366;2022-08-11T10:51:20;3.05;;;2.50;;
17947;SDS011;9099;47.958;11.366;2022-08-11T10:54:05;2.72;;;2.42;;
17947;SDS011;9099;47.958;11.366;2022-08-11T10:56:49;2.78;;;2.17;;
17947;SDS011;9099;47.958;11.366;2022-08-11T10:59:36;3.08;;;2.28;;
17947;SDS011;9099;47.958;11.366;2022-08-11T11:02:06;2.30;;;2.10;;
17947;SDS011;9099;47.958;11.366;2022-08-11T11:04:41;3.65;;;2.45;;
17947;SDS011;9099;47.958;11.366;2022-08-11T11:07:21;2.70;;;2.50;;
17947;SDS011;9099;47.958;11.366;2022-08-11T11:09:53;2.58;;;2.38;;
17947;SDS011;9099;47.958;11.366;2022-08-11T11:12:23;2.38;;;2.22;;
17947;SDS011;9099;47.958;11.366;2022-08-11T11:15:13;2.90;;;2.17;;
17947;SDS011;9099;47.958;11.366;2022-08-11T11:18:02;2.30;;;2.15;;
17947;SDS011;9099;47.958;11.366;2022-08-11T11:20:37;2.33;;;2.20;;
17947;SDS011;9099;47.958;11.366;2022-08-11T11:23:07;3.35;;;2.22;;
17947;SDS011;9099;47.958;11.366;2022-08-11T11:25:56;2.40;;;2.20;;
17947;SDS011;9099;47.958;11.366;2022-08-11T11:28:47;2.30;;;2.17;;
17947;SDS011;9099;47.958;11.366;2022-08-11T11:31:30;2.42;;;2.30;;
17947;SDS011;9099;47.958;11.366;2022-08-11T11:34:11;2.40;;;2.30;;
17947;SDS011;9099;47.958;11.366;2022-08-11T11:36:48;2.25;;;2.13;;
17947;SDS011;9099;47.958;11.366;2022-08-11T11:39:17;3.03;;;2.30;;
17947;SDS011;9099;47.958;11.366;2022-08-11T11:41:47;2.67;;;2.47;;
17947;SDS011;9099;47.958;11.366;2022-08-11T11:44:15;2.33;;;2.22;;
17947;SDS011;9099;47.958;11.366;2022-08-11T11:46:43;10.77;;;2.85;;
17947;SDS011;9099;47.958;11.366;2022-08-11T11:49:11;3.55;;;2.45;;
17947;SDS011;9099;47.958;11.366;2022-08-11T11:51:42;3.72;;;2.35;;
17947;SDS011;9099;47.958;11.366;2022-08-11T11:54:13;4.43;;;2.20;;
17947;SDS011;9099;47.958;11.366;2022-08-11T11:56:42;4.43;;;2.30;;
17947;SDS011;9099;47.958;11.366;2022-08-11T11:59:10;2.78;;;2.00;;
17947;SDS011;9099;47.958;11.366;2022-08-11T12:01:55;2.17;;;2.08;;
17947;SDS011;9099;47.958;11.366;2022-08-11T12:04:23;2.00;;;1.90;;
17947;SDS011;9099;47.958;11.366;2022-08-11T12:06:52;2.08;;;1.98;;
17947;SDS011;9099;47.958;11.366;2022-08-11T12:09:41;2.40;;;2.20;;
17947;SDS011;9099;47.958;11.366;2022-08-11T12:12:09;2.45;;;2.20;;
17947;SDS011;9099;47.958;11.366;2022-08-11T12:14:54;4.53;;;2.22;;
17947;SDS011;9099;47.958;11.366;2022-08-11T12:17:22;3.08;;;2.10;;
17947;SDS011;9099;47.958;11.366;2022-08-11T12:19:49;2.50;;;2.30;;
17947;SDS011;9099;47.958;11.366;2022-08-11T12:22:17;2.40;;;2.20;;
17947;SDS011;9099;47.958;11.366;2022-08-11T12:25:04;2.50;;;2.17;;
17947;SDS011;9099;47.958;11.366;2022-08-11T12:27:49;2.58;;;2.10;;
17947;SDS011;9099;47.958;11.366;2022-08-11T12:30:18;2.47;;;2.28;;
17947;SDS011;9099;47.958;11.366;2022-08-11T12:32:46;2.10;;;2.00;;
17947;SDS011;9099;47.958;11.366;2022-08-11T12:35:14;2.53;;;2.33;;
17947;SDS011;9099;47.958;11.366;2022-08-11T12:37:42;2.53;;;2.33;;
17947;SDS011;9099;47.958;11.366;2022-08-11T12:40:13;2.22;;;2.10;;
17947;SDS011;9099;47.958;11.366;2022-08-11T12:43:02;2.20;;;2.08;;
17947;SDS011;9099;47.958;11.366;2022-08-11T12:45:51;2.13;;;2.00;;
17947;SDS011;9099;47.958;11.366;2022-08-11T12:48:22;2.00;;;1.90;;
17947;SDS011;9099;47.958;11.366;2022-08-11T12:51:11;2.58;;;2.20;;
17947;SDS011;9099;47.958;11.366;2022-08-11T12:54:01;3.25;;;2.10;;
17947;SDS011;9099;47.958;11.366;2022-08-11T12:56:38;4.45;;;2.38;;
17947;SDS011;9099;47.958;11.366;2022-08-11T12:59:24;2.13;;;2.03;;
17947;SDS011;9099;47.958;11.366;2022-08-11T13:02:09;2.10;;;2.00;;
17947;SDS011;9099;47.958;11.366;2022-08-11T13:05:00;2.25;;;2.15;;
17947;SDS011;9099;47.958;11.366;2022-08-11T13:07:28;2.08;;;1.98;;
17947;SDS011;9099;47.958;11.366;2022-08-11T13:09:56;2.20;;;2.10;;
17947;SDS011;9099;47.958;11.366;2022-08-11T13:12:27;2.10;;;2.00;;
17947;SDS011;9099;47.958;11.366;2022-08-11T13:15:10;1.85;;;1.75;;
17947;SDS011;9099;47.958;11.366;2022-08-11T13:17:39;2.20;;;2.00;;
17947;SDS011;9099;47.958;11.366;2022-08-11T13:20:08;2.28;;;1.98;;
17947;SDS011;9099;47.958;11.366;2022-08-11T13:22:37;2.00;;;1.90;;
17947;SDS011;9099;47.958;11.366;2022-08-11T13:25:10;2.20;;;1.98;;
17947;SDS011;9099;47.958;11.366;2022-08-11T13:27:41;3.50;;;2.33;;
17947;SDS011;9099;47.958;11.366;2022-08-11T13:30:10;4.07;;;2.10;;
17947;SDS011;9099;47.958;11.366;2022-08-11T13:32:56;2.25;;;2.03;;
17947;SDS011;9099;47.958;11.366;2022-08-11T13:35:23;2.10;;;1.88;;
17947;SDS011;9099;47.958;11.366;2022-08-11T13:37:52;3.38;;;2.03;;
17947;SDS011;9099;47.958;11.366;2022-08-11T13:40:21;2.40;;;2.20;;
17947;SDS011;9099;47.958;11.366;2022-08-11T13:42:51;2.55;;;2.10;;
17947;SDS011;9099;47.958;11.366;2022-08-11T13:45:19;2.00;;;1.90;;
17947;SDS011;9099;47.958;11.366;2022-08-11T13:47:48;2.83;;;1.70;;
17947;SDS011;9099;47.958;11.366;2022-08-11T13:50:18;2.15;;;1.77;;
17947;SDS011;9099;47.958;11.366;2022-08-11T13:52:45;2.35;;;2.15;;
17947;SDS011;9099;47.958;11.366;2022-08-11T13:55:14;1.92;;;1.80;;
17947;SDS011;9099;47.958;11.366;2022-08-11T13:57:48;2.08;;;1.98;;
17947;SDS011;9099;47.958;11.366;2022-08-11T14:00:18;3.03;;;2.13;;
17947;SDS011;9099;47.958;11.366;2022-08-11T14:02:47;3.03;;;1.85;;
17947;SDS011;9099;47.958;11.366;2022-08-11T14:05:17;1.90;;;1.80;;
17947;SDS011;9099;47.958;11.366;2022-08-11T14:07:48;2.85;;;2.20;;
17947;SDS011;9099;47.958;11.366;2022-08-11T14:10:18;2.40;;;2.20;;
17947;SDS011;9099;47.958;11.366;2022-08-11T14:12:48;2.58;;;2.15;;
17947;SDS011;9099;47.958;11.366;2022-08-11T14:15:40;2.40;;;2.10;;
17947;SDS011;9099;47.958;11.366;2022-08-11T14:18:10;4.07;;;2.60;;
17947;SDS011;9099;47.958;11.366;2022-08-11T14:20:45;3.28;;;1.90;;
17947;SDS011;9099;47.958;11.366;2022-08-11T14:23:41;2.58;;;2.13;;
17947;SDS011;9099;47.958;11.366;2022-08-11T14:26:10;3.60;;;2.10;;
17947;SDS011;9099;47.958;11.366;2022-08-11T14:28:54;2.10;;;2.00;;
17947;SDS011;9099;47.958;11.366;2022-08-11T14:31:25;2.50;;;2.00;;
17947;SDS011;9099;47.958;11.366;2022-08-11T14:33:54;2.08;;;1.88;;
17947;SDS011;9099;47.958;11.366;2022-08-11T14:36:23;1.85;;;1.75;;
17947;SDS011;9099;47.958;11.366;2022-08-11T14:38:51;2.30;;;2.20;;
17947;SDS011;9099;47.958;11.366;2022-08-11T14:41:19;2.75;;;2.20;;
17947;SDS011;9099;47.958;11.366;2022-08-11T14:44:15;2.15;;;2.00;;
17947;SDS011;9099;47.958;11.366;2022-08-11T14:47:00;2.00;;;1.80;;
17947;SDS011;9099;47.958;11.366;2022-08-11T14:49:31;2.22;;;2.00;;
17947;SDS011;9099;47.958;11.366;2022-08-11T14:52:01;2.45;;;2.10;;
17947;SDS011;9099;47.958;11.366;2022-08-11T14:54:30;2.08;;;1.90;;
17947;SDS011;9099;47.958;11.366;2022-08-11T14:57:16;3.67;;;2.00;;
17947;SDS011;9099;47.958;11.366;2022-08-11T14:59:45;2.83;;;1.75;;
17947;SDS011;9099;47.958;11.366;2022-08-11T15:02:14;4.97;;;1.90;;
17947;SDS011;9099;47.958;11.366;2022-08-11T15:05:02;1.83;;;1.73;;
17947;SDS011;9099;47.958;11.366;2022-08-11T15:07:30;1.92;;;1.83;;
17947;SDS011;9099;47.958;11.366;2022-08-11T15:09:58;2.00;;;1.90;;
17947;SDS011;9099;47.958;11.366;2022-08-11T15:12:27;2.05;;;1.95;;
17947;SDS011;9099;47.958;11.366;2022-08-11T15:14:56;4.25;;;2.03;;
17947;SDS011;9099;47.958;11.366;2022-08-11T15:17:38;2.95;;;1.70;;
17947;SDS011;9099;47.958;11.366;2022-08-11T15:20:07;2.22;;;2.10;;
17947;SDS011;9099;47.958;11.366;2022-08-11T15:22:54;2.83;;;1.83;;
17947;SDS011;9099;47.958;11.366;2022-08-11T15:25:39;2.70;;;1.98;;
17947;SDS011;9099;47.958;11.366;2022-08-11T15:28:08;1.90;;;1.60;;
17947;SDS011;9099;47.958;11.366;2022-08-11T15:30:58;2.50;;;1.65;;
17947;SDS011;9099;47.958;11.366;2022-08-11T15:33:44;2.05;;;1.80;;
17947;SDS011;9099;47.958;11.366;2022-08-11T15:36:35;2.58;;;1.88;;
17947;SDS011;9099;47.958;11.366;2022-08-11T15:39:22;1.92;;;1.75;;
17947;SDS011;9099;47.958;11.366;2022-08-11T15:41:56;2.10;;;1.90;;
17947;SDS011;9099;47.958;11.366;2022-08-11T15:44:45;1.70;;;1.60;;
17947;SDS011;9099;47.958;11.366;2022-08-11T15:47:36;1.88;;;1.77;;
17947;SDS011;9099;47.958;11.366;2022-08-11T15:50:06;1.83;;;1.73;;
17947;SDS011;9099;47.958;11.366;2022-08-11T15:52:41;2.10;;;1.60;;
17947;SDS011;9099;47.958;11.366;2022-08-11T15:55:15;1.75;;;1.65;;
17947;SDS011;9099;47.958;11.366;2022-08-11T15:57:43;1.90;;;1.80;;
17947;SDS011;9099;47.958;11.366;2022-08-11T16:00:32;1.70;;;1.60;;
17947;SDS011;9099;47.958;11.366;2022-08-11T16:03:18;3.45;;;1.70;;
17947;SDS011;9099;47.958;11.366;2022-08-11T16:06:03;2.08;;;1.67;;
17947;SDS011;9099;47.958;11.366;2022-08-11T16:08:32;1.80;;;1.70;;
17947;SDS011;9099;47.958;11.366;2022-08-11T16:11:01;1.95;;;1.85;;
17947;SDS011;9099;47.958;11.366;2022-08-11T16:13:29;1.73;;;1.60;;
17947;SDS011;9099;47.958;11.366;2022-08-11T16:16:15;5.00;;;1.80;;
17947;SDS011;9099;47.958;11.366;2022-08-11T16:18:45;2.35;;;1.90;;
17947;SDS011;9099;47.958;11.366;2022-08-11T16:21:16;1.73;;;1.60;;
17947;SDS011;9099;47.958;11.366;2022-08-11T16:23:48;1.98;;;1.80;;
17947;SDS011;9099;47.958;11.366;2022-08-11T16:26:19;1.50;;;1.50;;
17947;SDS011;9099;47.958;11.366;2022-08-11T16:28:47;1.70;;;1.60;;
17947;SDS011;9099;47.958;11.366;2022-08-11T16:31:18;1.40;;;1.40;;
17947;SDS011;9099;47.958;11.366;2022-08-11T16:33:48;2.75;;;1.80;;
17947;SDS011;9099;47.958;11.366;2022-08-11T16:36:17;1.73;;;1.63;;
17947;SDS011;9099;47.958;11.366;2022-08-11T16:39:04;2.10;;;1.58;;
17947;SDS011;9099;47.958;11.366;2022-08-11T16:41:32;1.98;;;1.70;;
17947;SDS011;9099;47.958;11.366;2022-08-11T16:44:19;1.50;;;1.50;;
17947;SDS011;9099;47.958;11.366;2022-08-11T16:47:13;2.38;;;1.70;;